Time;durP1;ratioP1;P1;durP2;ratioP2;P2;SDS_P1;SDS_P2;PMS_P1;PMS_P2;Temp;Humidity;BMP_temperature;BMP_pressure;BME280_temperature;BME280_humidity;BME280_pressure;Samples;Min_cycle;Max_cycle;Signal;HPM_P1;HPM_P2
2021/12/23 00:00:54;;;;;;;;;;;;;;;-2.24;55.05;95592.28;4979780;28;20438;-76
2021/12/23 00:03:19;;;;;;;;;;;;;;;-2.21;56.71;95589.44;4977795;28;19990;-76
2021/12/23 00:05:45;;;;;;;;;;;;;;;-2.57;54.59;95575.22;4977244;28;19973;-76
2021/12/23 00:08:10;;;;;;;;;;;;;;;-2.40;58.18;95575.00;4983957;28;19990;-76
2021/12/23 00:10:35;;;;;;;;;;;;;;;-2.45;56.41;95578.84;4992223;28;20307;-76
2021/12/23 00:13:00;;;;;;;;;;;;;;;-2.38;57.45;95562.69;4980529;28;20370;-76
2021/12/23 00:15:36;;;;;;;;;;;;;;;-2.36;55.70;95565.22;4994928;28;19992;-76
2021/12/23 00:18:06;;;;;;;;;;;;;;;-2.31;56.36;95547.47;4999292;28;19986;-76
2021/12/23 00:25:44;;;;;;;;;;;;;;;-2.56;50.62;95533.41;4978685;28;19984;-76
2021/12/23 00:28:09;;;;;;;;;;;;;;;-2.32;52.76;95544.97;4993805;28;19990;-76
2021/12/23 00:30:34;;;;;;;;;;;;;;;-2.67;55.51;95536.72;4977029;28;19998;-76
2021/12/23 00:33:00;;;;;;;;;;;;;;;-2.69;54.00;95543.78;4979388;28;19982;-76
2021/12/23 00:35:25;;;;;;;;;;;;;;;-2.57;56.39;95536.13;4976749;28;20514;-76
2021/12/23 00:37:57;;;;;;;;;;;;;;;-2.38;54.50;95525.34;4978762;28;20396;-76
2021/12/23 00:40:22;;;;;;;;;;;;;;;-2.32;55.64;95522.34;4978431;28;19985;-76
2021/12/23 00:42:47;;;;;;;;;;;;;;;-2.59;56.28;95512.75;4978657;28;20446;-76
2021/12/23 00:45:13;;;;;;;;;;;;;;;-2.75;53.72;95513.75;4973474;28;20006;-75
2021/12/23 00:47:38;;;;;;;;;;;;;;;-2.92;49.83;95516.59;4978864;28;19998;-76
2021/12/23 00:50:03;;;;;;;;;;;;;;;-2.80;56.72;95515.81;4978655;28;20586;-76
2021/12/23 00:52:34;;;;;;;;;;;;;;;-2.71;57.63;95523.97;4979061;28;20080;-76
2021/12/23 00:54:59;;;;;;;;;;;;;;;-2.52;53.86;95527.06;4978752;28;20024;-75
2021/12/23 00:57:29;;;;;;;;;;;;;;;-2.56;56.20;95525.59;4979337;28;19974;-76
2021/12/23 00:59:54;;;;;;;;;;;;;;;-2.64;54.78;95527.88;4993314;28;20519;-76
2021/12/23 01:02:23;;;;;;;;;;;;;;;-2.66;55.54;95521.91;4978226;28;20073;-76
2021/12/23 01:04:48;;;;;;;;;;;;;;;-2.62;55.95;95523.38;4983038;28;19976;-75
2021/12/23 01:07:14;;;;;;;;;;;;;;;-2.57;55.48;95505.69;4981589;28;20182;-76
2021/12/23 01:09:39;;;;;;;;;;;;;;;-2.65;56.21;95500.94;4982084;28;20032;-76
2021/12/23 01:12:04;;;;;;;;;;;;;;;-2.60;55.02;95516.31;4979240;28;20036;-76
2021/12/23 01:14:40;;;;;;;;;;;;;;;-2.80;57.93;95508.00;4982357;28;20502;-75
2021/12/23 01:17:30;;;;;;;;;;;;;;;-2.57;55.02;95490.03;4981667;28;20319;-76
2021/12/23 01:19:57;;;;;;;;;;;;;;;-2.82;55.96;95506.41;4968455;28;19990;-76
2021/12/23 01:22:22;;;;;;;;;;;;;;;-2.69;55.93;95504.69;4982498;28;20505;-76
2021/12/23 01:24:48;;;;;;;;;;;;;;;-2.67;56.75;95500.22;4982006;28;19970;-76
2021/12/23 01:27:14;;;;;;;;;;;;;;;-2.82;56.63;95504.63;4981148;28;20173;-76
2021/12/23 01:29:39;;;;;;;;;;;;;;;-2.85;52.71;95510.03;4982750;28;20105;-76
2021/12/23 01:32:06;;;;;;;;;;;;;;;-2.89;55.37;95500.72;4982690;28;19971;-76
2021/12/23 01:34:33;;;;;;;;;;;;;;;-2.85;59.26;95496.19;4982517;28;20378;-76
2021/12/23 01:36:58;;;;;;;;;;;;;;;-2.69;57.89;95501.22;4981475;28;19994;-76
2021/12/23 01:39:24;;;;;;;;;;;;;;;-2.71;54.91;95477.06;4981160;28;19990;-76
2021/12/23 01:41:49;;;;;;;;;;;;;;;-2.70;57.19;95481.31;4980817;28;20005;-77
2021/12/23 01:44:14;;;;;;;;;;;;;;;-2.74;58.00;95472.88;4979199;28;20148;-76
2021/12/23 01:46:39;;;;;;;;;;;;;;;-3.01;51.52;95455.47;4985074;28;20161;-76
2021/12/23 01:49:05;;;;;;;;;;;;;;;-2.94;55.16;95466.31;4985206;28;19994;-76
2021/12/23 01:51:30;;;;;;;;;;;;;;;-2.89;55.95;95464.25;4984424;28;20078;-76
2021/12/23 01:53:55;;;;;;;;;;;;;;;-2.73;57.83;95453.69;4985570;28;19993;-76
2021/12/23 01:56:20;;;;;;;;;;;;;;;-2.86;56.89;95447.63;4984748;28;20001;-76
2021/12/23 01:58:46;;;;;;;;;;;;;;;-2.85;58.41;95446.66;4984126;28;20013;-76
2021/12/23 02:01:11;;;;;;;;;;;;;;;-2.65;57.14;95437.56;4985940;28;19966;-76
2021/12/23 02:03:37;;;;;;;;;;;;;;;-3.02;53.31;95439.00;4984285;28;20021;-76
2021/12/23 02:06:02;;;;;;;;;;;;;;;-2.91;50.27;95440.09;4985366;28;20269;-76
2021/12/23 02:08:27;;;;;;;;;;;;;;;-2.89;57.37;95436.44;4985819;28;20174;-76
2021/12/23 02:10:53;;;;;;;;;;;;;;;-2.93;57.10;95432.34;4983588;28;19990;-76
2021/12/23 02:13:19;;;;;;;;;;;;;;;-2.95;56.59;95439.44;4984153;28;19966;-76
2021/12/23 02:15:44;;;;;;;;;;;;;;;-3.06;52.51;95437.50;4985354;28;20493;-76
2021/12/23 02:18:10;;;;;;;;;;;;;;;-3.18;57.77;95443.50;4984004;28;20080;-76
2021/12/23 02:20:35;;;;;;;;;;;;;;;-3.22;57.10;95442.88;4984198;28;20019;-76
2021/12/23 02:23:01;;;;;;;;;;;;;;;-2.97;58.71;95435.25;4983710;28;20052;-76
2021/12/23 02:25:26;;;;;;;;;;;;;;;-2.97;56.52;95436.09;4984356;28;19966;-76
2021/12/23 02:27:52;;;;;;;;;;;;;;;-3.09;59.00;95440.31;4984784;28;20021;-76
2021/12/23 02:30:18;;;;;;;;;;;;;;;-3.05;57.67;95435.75;4983686;28;19994;-75
2021/12/23 02:32:43;;;;;;;;;;;;;;;-3.10;58.64;95440.41;4985478;28;20435;-76
2021/12/23 02:35:10;;;;;;;;;;;;;;;-3.15;55.13;95432.91;4983445;28;20044;-76
2021/12/23 02:37:35;;;;;;;;;;;;;;;-3.06;58.13;95423.66;4983497;28;20176;-76
2021/12/23 02:40:00;;;;;;;;;;;;;;;-3.17;57.80;95419.13;4983646;28;20002;-76
2021/12/23 02:42:26;;;;;;;;;;;;;;;-3.24;59.85;95410.03;4983470;28;20314;-76
2021/12/23 02:44:54;;;;;;;;;;;;;;;-2.94;57.91;95403.78;4983705;28;19966;-76
2021/12/23 02:47:19;;;;;;;;;;;;;;;-3.04;53.59;95413.97;4983531;28;20349;-76
2021/12/23 02:49:45;;;;;;;;;;;;;;;-3.24;57.60;95410.03;4983243;28;20421;-76
2021/12/23 02:52:10;;;;;;;;;;;;;;;-3.52;58.72;95402.19;4984889;28;19989;-76
2021/12/23 02:54:35;;;;;;;;;;;;;;;-3.21;59.00;95391.59;4971870;28;20004;-76
2021/12/23 02:57:00;;;;;;;;;;;;;;;-3.02;58.94;95386.06;4984219;28;20069;-76
2021/12/23 02:59:26;;;;;;;;;;;;;;;-3.25;57.98;95379.72;4983297;28;20044;-76
2021/12/23 03:01:51;;;;;;;;;;;;;;;-3.36;57.45;95383.00;4983004;28;20498;-76
2021/12/23 03:04:16;;;;;;;;;;;;;;;-3.01;52.80;95380.75;4999818;28;20402;-76
2021/12/23 03:06:41;;;;;;;;;;;;;;;-3.18;53.90;95367.97;4982933;28;19994;-76
2021/12/23 03:09:06;;;;;;;;;;;;;;;-2.94;52.84;95373.38;4984288;28;19994;-76
2021/12/23 03:11:32;;;;;;;;;;;;;;;-2.83;56.82;95370.06;4983924;28;20081;-76
2021/12/23 03:13:57;;;;;;;;;;;;;;;-2.93;52.33;95368.97;4984084;28;20719;-76
2021/12/23 03:16:24;;;;;;;;;;;;;;;-2.90;53.61;95364.41;4984882;28;20020;-76
2021/12/23 03:18:50;;;;;;;;;;;;;;;-3.02;56.48;95360.03;4984224;28;20522;-76
2021/12/23 03:21:15;;;;;;;;;;;;;;;-2.96;57.43;95362.22;4984791;28;20069;-76
2021/12/23 03:23:40;;;;;;;;;;;;;;;-2.75;55.22;95354.75;4998848;28;20545;-76
2021/12/23 03:26:06;;;;;;;;;;;;;;;-2.75;58.46;95351.34;4984228;28;20306;-76
2021/12/23 03:28:31;;;;;;;;;;;;;;;-2.83;54.33;95346.59;4982890;28;20530;-76
2021/12/23 03:30:56;;;;;;;;;;;;;;;-2.78;57.57;95343.72;4998922;28;20355;-76
2021/12/23 03:33:22;;;;;;;;;;;;;;;-2.81;56.52;95342.16;4982927;28;20450;-76
2021/12/23 03:35:47;;;;;;;;;;;;;;;-2.76;55.87;95332.25;4984165;28;20007;-76
2021/12/23 03:38:12;;;;;;;;;;;;;;;-2.92;57.32;95329.00;4982020;28;20482;-76
2021/12/23 03:40:38;;;;;;;;;;;;;;;-2.47;56.84;95327.78;4984273;28;20001;-76
2021/12/23 03:43:03;;;;;;;;;;;;;;;-2.54;57.90;95315.16;4982011;28;20486;-76
2021/12/23 03:45:28;;;;;;;;;;;;;;;-2.61;57.63;95313.91;4973800;28;19966;-76
2021/12/23 03:47:53;;;;;;;;;;;;;;;-2.46;56.58;95314.63;4966114;28;20298;-76
2021/12/23 03:50:19;;;;;;;;;;;;;;;-2.53;55.24;95308.16;4982322;28;20084;-76
2021/12/23 03:52:45;;;;;;;;;;;;;;;-2.58;54.10;95308.47;4982442;28;19966;-76
2021/12/23 03:55:10;;;;;;;;;;;;;;;-2.59;55.00;95312.03;4982041;28;20458;-75
2021/12/23 03:57:35;;;;;;;;;;;;;;;-2.61;54.65;95311.31;4966124;28;20397;-76
2021/12/23 04:00:01;;;;;;;;;;;;;;;-2.73;56.28;95312.94;4998151;28;19996;-76
2021/12/23 04:02:26;;;;;;;;;;;;;;;-2.54;54.62;95304.72;4983106;28;19986;-76
2021/12/23 04:04:51;;;;;;;;;;;;;;;-2.65;56.52;95299.41;4982663;28;20009;-76
2021/12/23 04:07:16;;;;;;;;;;;;;;;-2.48;56.61;95305.25;4982872;28;20088;-76
2021/12/23 04:09:42;;;;;;;;;;;;;;;-2.72;55.41;95304.19;4981120;28;20283;-76
2021/12/23 04:12:07;;;;;;;;;;;;;;;-2.73;56.99;95297.31;4983320;28;19966;-76
2021/12/23 04:14:32;;;;;;;;;;;;;;;-2.48;54.31;95294.84;4965506;28;19994;-76
2021/12/23 04:16:58;;;;;;;;;;;;;;;-2.66;54.81;95290.75;4982271;28;19970;-76
2021/12/23 04:19:28;;;;;;;;;;;;;;;-2.68;57.04;95286.59;4982848;28;20026;-76
2021/12/23 04:21:53;;;;;;;;;;;;;;;-2.65;53.90;95283.78;4983149;28;19967;-75
2021/12/23 04:24:18;;;;;;;;;;;;;;;-2.52;56.29;95294.19;4981709;28;20684;-75
2021/12/23 04:26:43;;;;;;;;;;;;;;;-2.31;55.71;95284.06;4997934;28;20048;-76
2021/12/23 04:29:09;;;;;;;;;;;;;;;-2.78;48.79;95281.16;4997669;28;19997;-76
2021/12/23 04:31:34;;;;;;;;;;;;;;;-2.77;56.27;95291.50;4983332;28;20454;-76
2021/12/23 04:33:59;;;;;;;;;;;;;;;-2.34;54.64;95286.06;4982286;28;20085;-76
2021/12/23 04:36:27;;;;;;;;;;;;;;;-2.52;55.84;95270.72;4982084;28;20442;-76
2021/12/23 04:38:52;;;;;;;;;;;;;;;-2.27;56.62;95277.69;4982519;28;20002;-76
2021/12/23 04:41:17;;;;;;;;;;;;;;;-2.09;54.47;95272.16;4981834;28;19985;-76
2021/12/23 04:43:43;;;;;;;;;;;;;;;-1.95;55.77;95270.31;4979937;28;19990;-76
2021/12/23 04:46:08;;;;;;;;;;;;;;;-2.14;55.76;95274.25;4965151;28;20001;-76
2021/12/23 04:48:33;;;;;;;;;;;;;;;-2.26;57.10;95270.72;4981374;28;20044;-76
2021/12/23 04:50:58;;;;;;;;;;;;;;;-2.05;54.80;95278.81;4981215;28;20339;-77
2021/12/23 04:53:24;;;;;;;;;;;;;;;-1.96;55.86;95260.84;4982972;28;20214;-77
2021/12/23 04:55:49;;;;;;;;;;;;;;;-2.25;52.88;95257.56;4980579;28;20491;-76
2021/12/23 04:58:14;;;;;;;;;;;;;;;-2.27;53.75;95262.03;4965160;28;19994;-76
2021/12/23 05:00:42;;;;;;;;;;;;;;;-2.04;55.26;95256.19;4982927;28;19974;-76
2021/12/23 05:03:07;;;;;;;;;;;;;;;-1.94;55.27;95256.34;4981735;28;20332;-76
2021/12/23 05:05:32;;;;;;;;;;;;;;;-2.01;54.55;95250.72;4981299;28;19978;-76
2021/12/23 05:07:57;;;;;;;;;;;;;;;-2.20;47.35;95251.19;4982541;28;19974;-76
2021/12/23 05:10:22;;;;;;;;;;;;;;;-2.10;55.76;95252.22;4980926;28;20001;-76
2021/12/23 05:12:48;;;;;;;;;;;;;;;-2.21;52.29;95233.88;4980916;28;20431;-77
2021/12/23 05:15:17;;;;;;;;;;;;;;;-2.12;56.32;95231.47;4982511;28;19998;-76
2021/12/23 05:17:42;;;;;;;;;;;;;;;-2.05;54.04;95244.06;4980430;28;19997;-76
2021/12/23 05:20:08;;;;;;;;;;;;;;;-1.89;55.94;95244.66;4998234;28;19978;-77
2021/12/23 05:22:33;;;;;;;;;;;;;;;-2.08;55.98;95232.06;4984889;28;20496;-77
2021/12/23 05:24:58;;;;;;;;;;;;;;;-1.93;54.41;95226.69;4986772;28;19966;-77
2021/12/23 05:27:24;;;;;;;;;;;;;;;-2.02;51.10;95216.00;4984619;28;19994;-76
2021/12/23 05:29:49;;;;;;;;;;;;;;;-1.89;56.17;95212.50;4984756;28;19986;-76
2021/12/23 05:32:14;;;;;;;;;;;;;;;-2.16;53.81;95211.75;4985051;28;20305;-76
2021/12/23 05:34:40;;;;;;;;;;;;;;;-2.25;53.76;95208.00;4984480;28;20005;-76
2021/12/23 05:37:05;;;;;;;;;;;;;;;-2.19;55.07;95195.47;4984927;28;20106;-77
2021/12/23 05:39:30;;;;;;;;;;;;;;;-1.83;54.15;95199.00;4984796;28;20318;-76
2021/12/23 05:41:55;;;;;;;;;;;;;;;-2.19;53.35;95191.09;4984287;28;20295;-77
2021/12/23 05:44:20;;;;;;;;;;;;;;;-2.13;55.54;95195.84;4984680;28;20816;-76
2021/12/23 05:46:46;;;;;;;;;;;;;;;-1.98;53.75;95190.50;4986191;28;20409;-77
2021/12/23 05:49:12;;;;;;;;;;;;;;;-1.95;53.81;95189.44;4984936;28;20064;-76
2021/12/23 05:51:38;;;;;;;;;;;;;;;-1.83;55.16;95187.72;4985676;28;20647;-77
2021/12/23 05:54:03;;;;;;;;;;;;;;;-1.89;54.72;95191.63;4980772;28;20309;-76
2021/12/23 05:56:28;;;;;;;;;;;;;;;-1.73;55.52;95186.94;4979231;28;20048;-76
2021/12/23 05:58:53;;;;;;;;;;;;;;;-1.64;55.61;95180.22;4984109;28;20009;-77
2021/12/23 06:01:19;;;;;;;;;;;;;;;-1.71;55.77;95184.22;4984753;28;20024;-77
2021/12/23 06:03:46;;;;;;;;;;;;;;;-1.80;53.67;95187.50;4984738;28;19994;-76
2021/12/23 06:06:13;;;;;;;;;;;;;;;-1.92;46.49;95186.63;4985503;28;20001;-77
2021/12/23 06:08:39;;;;;;;;;;;;;;;-1.92;53.07;95177.00;4985764;28;20438;-76
2021/12/23 06:11:04;;;;;;;;;;;;;;;-1.79;54.99;95184.78;4984070;28;19990;-77
2021/12/23 06:13:30;;;;;;;;;;;;;;;-1.63;52.92;95181.88;4985035;28;19997;-77
2021/12/23 06:15:55;;;;;;;;;;;;;;;-1.63;55.33;95168.81;4972363;28;19990;-77
2021/12/23 06:18:20;;;;;;;;;;;;;;;-1.52;53.83;95167.22;4983567;28;20002;-76
2021/12/23 06:20:45;;;;;;;;;;;;;;;-1.55;54.53;95168.28;4985676;28;20013;-77
2021/12/23 06:23:11;;;;;;;;;;;;;;;-1.70;51.28;95154.56;4983699;28;20004;-77
2021/12/23 06:25:36;;;;;;;;;;;;;;;-1.74;51.79;95168.78;4984593;28;20367;-77
2021/12/23 06:28:02;;;;;;;;;;;;;;;-1.74;54.77;95171.38;4984745;28;20366;-77
2021/12/23 06:30:27;;;;;;;;;;;;;;;-1.54;54.40;95176.91;4984873;28;20086;-77
2021/12/23 06:32:53;;;;;;;;;;;;;;;-1.80;51.45;95174.47;4984243;28;20028;-77
2021/12/23 06:35:19;;;;;;;;;;;;;;;-1.86;55.75;95167.91;4983682;28;20477;-77
2021/12/23 06:37:44;;;;;;;;;;;;;;;-1.81;52.89;95163.19;4999070;28;19998;-76
2021/12/23 06:40:09;;;;;;;;;;;;;;;-1.66;54.26;95150.78;4984157;28;20495;-77
2021/12/23 06:42:35;;;;;;;;;;;;;;;-1.60;54.64;95146.88;4984451;28;20005;-76
2021/12/23 06:45:00;;;;;;;;;;;;;;;-1.63;54.11;95144.50;4984204;28;19978;-77
2021/12/23 06:47:25;;;;;;;;;;;;;;;-1.92;53.78;95142.25;4985021;28;20455;-77
2021/12/23 06:49:50;;;;;;;;;;;;;;;-1.89;51.71;95140.25;4966996;28;20528;-77
2021/12/23 06:52:16;;;;;;;;;;;;;;;-2.00;47.45;95142.81;4983520;28;20410;-76
2021/12/23 06:54:46;;;;;;;;;;;;;;;-2.09;53.59;95143.47;4966403;28;19990;-77
2021/12/23 06:57:13;;;;;;;;;;;;;;;-2.04;51.14;95136.97;4973155;28;20472;-77
2021/12/23 06:59:38;;;;;;;;;;;;;;;-2.33;52.21;95141.69;4999243;28;20000;-77
2021/12/23 07:02:03;;;;;;;;;;;;;;;-3.90;51.46;95146.09;4983270;28;20458;-75
2021/12/23 07:04:32;;;;;;;;;;;;;;;-3.59;50.96;95159.69;4966730;28;20371;-76
2021/12/23 07:07:08;;;;;;;;;;;;;;;-3.25;52.18;95143.59;4982995;28;20000;-76
2021/12/23 07:09:33;;;;;;;;;;;;;;;-3.10;57.24;95144.31;4985011;28;19978;-76
2021/12/23 07:11:59;;;;;;;;;;;;;;;-2.81;56.61;95159.72;4982584;28;20203;-76
2021/12/23 07:14:24;;;;;;;;;;;;;;;-2.82;50.15;95154.63;4982714;28;19994;-76
2021/12/23 07:16:49;;;;;;;;;;;;;;;-2.69;55.82;95157.19;4984594;28;20073;-76
2021/12/23 07:19:14;;;;;;;;;;;;;;;-2.66;53.19;95154.38;4984142;28;19994;-76
2021/12/23 07:21:40;;;;;;;;;;;;;;;-2.48;56.46;95134.00;4984148;28;20459;-76
2021/12/23 07:24:05;;;;;;;;;;;;;;;-2.57;54.68;95145.94;4965939;28;20422;-76
2021/12/23 07:26:30;;;;;;;;;;;;;;;-3.46;57.23;95138.06;4998726;28;19994;-76
2021/12/23 07:28:55;;;;;;;;;;;;;;;-3.12;59.07;95125.38;4984068;28;19978;-77
2021/12/23 07:31:21;;;;;;;;;;;;;;;-2.98;50.11;95131.38;4966507;28;20167;-77
2021/12/23 07:33:46;;;;;;;;;;;;;;;-3.11;53.55;95124.41;4981976;28;19966;-77
2021/12/23 07:36:12;;;;;;;;;;;;;;;-3.05;58.42;95131.78;4984090;28;20717;-77
2021/12/23 07:38:37;;;;;;;;;;;;;;;-2.98;54.90;95123.56;4983687;28;20013;-77
2021/12/23 07:41:02;;;;;;;;;;;;;;;-4.44;55.60;95129.56;4982506;28;20437;-77
2021/12/23 07:45:59;;;;;;;;;;;;;;;-3.26;49.93;95123.66;4982228;28;20029;-77
2021/12/23 07:48:24;;;;;;;;;;;;;;;-5.05;56.81;95122.03;4966299;28;19970;-77
2021/12/23 07:50:50;;;;;;;;;;;;;;;-4.57;53.73;95139.88;4981943;28;19982;-77
2021/12/23 07:53:15;;;;;;;;;;;;;;;-5.30;58.75;95157.25;4981676;28;19974;-77
2021/12/23 07:55:42;;;;;;;;;;;;;;;-4.42;61.35;95140.66;4982162;28;20061;-77
2021/12/23 07:58:08;;;;;;;;;;;;;;;-3.74;59.60;95143.31;4983034;28;20009;-77
2021/12/23 08:00:33;;;;;;;;;;;;;;;-3.49;57.05;95143.47;4962439;28;19974;-77
2021/12/23 08:02:58;;;;;;;;;;;;;;;-3.52;55.68;95140.09;4965495;28;19990;-77
2021/12/23 08:05:23;;;;;;;;;;;;;;;-3.22;55.62;95125.16;4983808;28;19974;-77
2021/12/23 08:07:49;;;;;;;;;;;;;;;-4.61;53.58;95120.22;4998108;28;20087;-77
2021/12/23 08:10:14;;;;;;;;;;;;;;;-3.63;55.95;95111.38;4981410;28;20321;-77
2021/12/23 08:12:39;;;;;;;;;;;;;;;-3.11;57.79;95103.59;4982172;28;19977;-77
2021/12/23 08:15:05;;;;;;;;;;;;;;;-2.65;55.10;95098.72;4982496;28;20001;-70
2021/12/23 08:17:30;;;;;;;;;;;;;;;-2.50;57.34;95097.63;4982466;28;19971;-77
2021/12/23 08:19:55;;;;;;;;;;;;;;;-2.41;55.71;95095.31;4978589;28;20247;-77
2021/12/23 08:22:22;;;;;;;;;;;;;;;-2.35;54.15;95092.25;4974537;28;20625;-77
2021/12/23 08:24:47;;;;;;;;;;;;;;;-2.12;55.07;95084.53;4977598;28;19970;-77
2021/12/23 08:27:12;;;;;;;;;;;;;;;-2.16;55.54;95085.69;4976707;28;19990;-77
2021/12/23 08:29:38;;;;;;;;;;;;;;;-3.08;49.94;95092.97;4978053;28;20065;-77
2021/12/23 08:32:03;;;;;;;;;;;;;;;-2.72;58.00;95087.88;4971164;28;19984;-77
2021/12/23 08:34:28;;;;;;;;;;;;;;;-3.32;50.77;95096.31;4977881;28;20627;-77
2021/12/23 08:36:54;;;;;;;;;;;;;;;-2.85;53.22;95106.13;4973917;28;20020;-77
2021/12/23 08:39:19;;;;;;;;;;;;;;;-2.28;50.11;95103.06;4976738;28;19998;-77
2021/12/23 08:41:44;;;;;;;;;;;;;;;-2.24;56.08;95104.53;4976222;28;20006;-77
2021/12/23 08:44:10;;;;;;;;;;;;;;;-2.04;53.75;95105.66;4978082;28;19970;-77
2021/12/23 08:46:35;;;;;;;;;;;;;;;-2.40;47.76;95107.41;4934871;28;20000;-77
2021/12/23 08:49:00;;;;;;;;;;;;;;;-2.03;51.29;95114.34;4976153;28;20060;-77
2021/12/23 08:51:25;;;;;;;;;;;;;;;-1.80;55.03;95111.81;4977459;28;20109;-77
2021/12/23 08:53:51;;;;;;;;;;;;;;;-1.74;48.91;95116.56;4973319;28;20675;-69
2021/12/23 08:56:16;;;;;;;;;;;;;;;-2.00;47.64;95112.31;4982409;28;20221;-69
2021/12/23 08:58:42;;;;;;;;;;;;;;;-1.69;51.32;95114.47;4984562;28;20017;-69
2021/12/23 09:01:07;;;;;;;;;;;;;;;-2.21;47.30;95106.88;4985103;28;20012;-69
2021/12/23 09:03:32;;;;;;;;;;;;;;;-2.37;48.71;95113.22;4984265;28;19994;-70
2021/12/23 09:05:58;;;;;;;;;;;;;;;-1.85;53.52;95105.16;4984695;28;20352;-70
2021/12/23 09:08:25;;;;;;;;;;;;;;;-2.69;47.84;95108.50;4975014;28;20104;-70
2021/12/23 09:10:51;;;;;;;;;;;;;;;-2.44;48.49;95105.94;4983948;28;20000;-69
2021/12/23 09:13:16;;;;;;;;;;;;;;;-2.91;57.39;95106.56;4978809;28;20361;-68
2021/12/23 09:15:41;;;;;;;;;;;;;;;-2.33;56.49;95097.34;4983402;28;20329;-69
2021/12/23 09:18:06;;;;;;;;;;;;;;;-2.48;52.53;95096.69;4978922;28;20529;-69
2021/12/23 09:20:32;;;;;;;;;;;;;;;-2.29;48.89;95096.19;4983260;28;19978;-68
2021/12/23 09:22:57;;;;;;;;;;;;;;;-2.40;49.87;95089.13;4983972;28;19990;-69
2021/12/23 09:25:24;;;;;;;;;;;;;;;-2.40;49.91;95089.97;4983649;28;20343;-69
2021/12/23 09:33:09;;;;;;;;;;;;;;;-3.05;53.13;95092.72;4984726;28;20048;-69
2021/12/23 09:35:35;;;;;;;;;;;;;;;-3.01;51.17;95086.38;4983072;28;20081;-69
2021/12/23 09:38:00;;;;;;;;;;;;;;;-2.65;53.56;95098.72;4982978;28;20008;-69
2021/12/23 09:40:29;;;;;;;;;;;;;;;-3.60;56.23;95090.34;4983892;28;19978;-68
2021/12/23 09:42:54;;;;;;;;;;;;;;;-2.38;55.51;95071.59;4982792;28;20077;-69
2021/12/23 09:45:19;;;;;;;;;;;;;;;-2.32;49.60;95091.19;4980217;28;19982;-69
2021/12/23 09:47:46;;;;;;;;;;;;;;;-2.28;47.71;95077.81;4979417;28;20100;-69
2021/12/23 09:50:12;;;;;;;;;;;;;;;-2.83;49.53;95090.41;4982142;28;20024;-69
2021/12/23 09:52:40;;;;;;;;;;;;;;;-2.03;47.78;95080.41;4983941;28;19975;-70
2021/12/23 09:55:05;;;;;;;;;;;;;;;-2.30;47.91;95082.31;4983147;28;20064;-70
2021/12/23 09:57:31;;;;;;;;;;;;;;;-2.15;48.69;95076.91;4983329;28;19970;-69
2021/12/23 09:59:56;;;;;;;;;;;;;;;-1.82;47.49;95078.00;4983507;28;20041;-70
2021/12/23 10:02:21;;;;;;;;;;;;;;;-1.68;54.04;95069.13;4981769;28;20064;-69
2021/12/23 10:04:46;;;;;;;;;;;;;;;-1.26;53.43;95073.81;4976138;28;19974;-70
2021/12/23 10:07:12;;;;;;;;;;;;;;;-0.98;53.71;95058.63;4980949;28;19994;-69
2021/12/23 10:09:47;;;;;;;;;;;;;;;-0.74;52.84;95054.25;4979715;28;19996;-64
2021/12/23 10:30:11;;;;;;;;;;;;;;;-0.90;44.33;95036.31;4980459;28;20302;-68
2021/12/23 10:37:26;;;;;;;;;;;;;;;-1.06;47.11;95021.81;4977397;28;20037;-68
2021/12/23 10:40:07;;;;;;;;;;;;;;;-1.05;46.30;95017.44;4976100;28;20004;-68
2021/12/23 10:42:32;;;;;;;;;;;;;;;-2.35;48.10;95015.81;4979636;28;20473;-68
2021/12/23 10:44:59;;;;;;;;;;;;;;;-1.03;50.90;95007.66;4976651;28;19970;-69
2021/12/23 10:47:42;;;;;;;;;;;;;;;-0.41;44.75;94994.94;4972347;28;20002;-68
2021/12/23 10:50:14;;;;;;;;;;;;;;;-0.83;44.84;95000.91;4979855;28;20659;-68
2021/12/23 10:52:49;;;;;;;;;;;;;;;-0.79;50.12;95002.31;4979951;28;20040;-69
2021/12/23 11:00:28;;;;;;;;;;;;;;;-0.41;50.81;95002.00;4975348;28;20002;-68
2021/12/23 11:02:57;;;;;;;;;;;;;;;-0.80;52.41;94987.59;4970738;28;20023;-69
2021/12/23 11:05:27;;;;;;;;;;;;;;;-0.12;45.49;94980.44;4979432;28;19978;-69
2021/12/23 11:11:26;;;;;;;;;;;;;;;0.81;48.30;94962.19;4978540;28;19990;-68
2021/12/23 11:38:14;;;;;;;;;;;;;;;1.92;42.30;94952.53;4976763;28;20356;-69
2021/12/23 11:45:49;;;;;;;;;;;;;;;1.30;41.23;94929.97;4977691;28;19980;-68
2021/12/23 11:48:15;;;;;;;;;;;;;;;1.22;46.43;94940.31;4976798;28;19970;-69
2021/12/23 11:51:01;;;;;;;;;;;;;;;1.13;46.05;94928.88;4977811;28;20410;-69
2021/12/23 11:53:26;;;;;;;;;;;;;;;0.76;48.14;94919.81;4977443;28;19966;-70
2021/12/23 11:55:51;;;;;;;;;;;;;;;1.39;46.87;94924.91;4977541;28;20011;-69
2021/12/23 11:58:19;;;;;;;;;;;;;;;1.44;40.79;94923.53;4978582;28;20468;-69
2021/12/23 12:00:45;;;;;;;;;;;;;;;1.19;44.97;94923.06;4976221;28;19975;-69
2021/12/23 12:03:11;;;;;;;;;;;;;;;0.66;43.52;94916.34;4978137;28;19998;-69
2021/12/23 12:05:36;;;;;;;;;;;;;;;1.26;42.50;94914.66;4977837;28;19981;-70
2021/12/23 12:08:09;;;;;;;;;;;;;;;1.03;46.75;94914.91;4978510;28;19974;-70
2021/12/23 12:10:35;;;;;;;;;;;;;;;0.26;43.58;94913.56;4977274;28;20005;-69
2021/12/23 12:13:01;;;;;;;;;;;;;;;0.65;43.69;94902.41;4978323;28;19981;-70
2021/12/23 12:15:43;;;;;;;;;;;;;;;0.78;42.30;94910.03;4977853;28;19990;-70
2021/12/23 12:18:09;;;;;;;;;;;;;;;1.41;42.62;94907.22;4977863;28;20000;-69
2021/12/23 12:20:36;;;;;;;;;;;;;;;1.94;43.09;94903.31;4978531;28;19978;-69
2021/12/23 12:23:02;;;;;;;;;;;;;;;2.12;39.49;94899.97;4978144;28;20033;-69
2021/12/23 12:25:28;;;;;;;;;;;;;;;2.08;38.99;94898.59;4978179;28;20382;-69
2021/12/23 12:27:56;;;;;;;;;;;;;;;1.72;40.42;94905.31;4978023;28;19998;-70
2021/12/23 12:30:38;;;;;;;;;;;;;;;1.68;40.70;94898.69;4977019;28;19993;-70
2021/12/23 12:33:04;;;;;;;;;;;;;;;1.81;43.57;94900.97;4978479;28;20402;-70
2021/12/23 12:35:29;;;;;;;;;;;;;;;1.33;41.50;94889.56;4977551;28;19998;-70
2021/12/23 12:37:55;;;;;;;;;;;;;;;1.27;41.48;94892.72;4976481;28;20028;-70
2021/12/23 12:40:20;;;;;;;;;;;;;;;-0.26;43.52;94888.25;4974757;28;20025;-68
2021/12/23 12:42:48;;;;;;;;;;;;;;;0.35;48.08;94877.94;4975203;28;20033;-69
2021/12/23 12:45:26;;;;;;;;;;;;;;;1.03;42.81;94876.44;4973732;28;20351;-69
2021/12/23 12:47:59;;;;;;;;;;;;;;;1.40;43.00;94874.09;4976720;28;20040;-69
2021/12/23 12:50:28;;;;;;;;;;;;;;;1.03;43.44;94868.56;4973707;28;20140;-68
2021/12/23 12:52:55;;;;;;;;;;;;;;;1.55;42.09;94870.09;4976004;28;20080;-68
2021/12/23 12:55:25;;;;;;;;;;;;;;;-0.40;47.63;94863.25;4976648;28;20000;-68
2021/12/23 12:57:58;;;;;;;;;;;;;;;1.22;43.10;94856.41;4976760;28;20366;-69
2021/12/23 13:00:27;;;;;;;;;;;;;;;1.37;42.78;94855.00;4975173;28;20544;-70
2021/12/23 13:02:53;;;;;;;;;;;;;;;1.18;43.81;94845.38;4974781;28;19994;-71
2021/12/23 13:05:24;;;;;;;;;;;;;;;1.59;43.75;94850.47;4977145;28;20299;-71
2021/12/23 13:07:49;;;;;;;;;;;;;;;1.70;41.09;94835.56;4977403;28;20312;-70
2021/12/23 13:10:18;;;;;;;;;;;;;;;1.47;42.16;94843.72;4976343;28;20386;-71
2021/12/23 13:12:45;;;;;;;;;;;;;;;1.54;46.23;94834.34;4977613;28;19974;-69
2021/12/23 13:15:21;;;;;;;;;;;;;;;0.66;43.04;94832.50;4975413;28;20404;-69
2021/12/23 13:17:48;;;;;;;;;;;;;;;0.37;44.19;94828.84;4975515;28;20458;-69
2021/12/23 13:20:14;;;;;;;;;;;;;;;0.70;47.13;94826.88;4977295;28;20066;-69
2021/12/23 13:22:39;;;;;;;;;;;;;;;1.02;42.82;94817.06;4976687;28;19990;-68
2021/12/23 13:25:05;;;;;;;;;;;;;;;0.60;43.49;94828.63;4976743;28;19974;-69
2021/12/23 13:27:30;;;;;;;;;;;;;;;0.39;45.75;94820.84;4977110;28;20223;-69
2021/12/23 13:30:00;;;;;;;;;;;;;;;0.27;44.99;94815.72;4977012;28;20016;-69
2021/12/23 13:32:25;;;;;;;;;;;;;;;0.69;45.98;94817.31;4977484;28;20752;-69
2021/12/23 13:34:51;;;;;;;;;;;;;;;0.70;46.64;94820.78;4977155;28;20005;-68
2021/12/23 13:37:16;;;;;;;;;;;;;;;0.76;44.95;94819.41;4979113;28;20129;-68
2021/12/23 13:39:42;;;;;;;;;;;;;;;0.14;46.46;94815.16;4979196;28;20497;-70
2021/12/23 13:42:08;;;;;;;;;;;;;;;0.53;45.10;94811.78;4982304;28;20076;-76
2021/12/23 13:44:34;;;;;;;;;;;;;;;0.56;49.94;94811.53;4980190;28;19978;-77
2021/12/23 13:47:02;;;;;;;;;;;;;;;1.27;43.51;94807.00;4982064;28;19994;-76
2021/12/23 13:49:34;;;;;;;;;;;;;;;1.30;43.60;94801.47;4982468;28;19970;-77
2021/12/23 13:51:59;;;;;;;;;;;;;;;1.35;46.77;94790.56;4982291;28;19998;-77
2021/12/23 13:54:24;;;;;;;;;;;;;;;1.57;47.74;94788.63;4965271;28;20457;-77
2021/12/23 13:56:50;;;;;;;;;;;;;;;1.75;46.61;94780.81;4980166;28;20258;-77